sensor_id;sensor_type;location;lat;lon;timestamp;P1;durP1;ratioP1;P2;durP2;ratioP2
4748;SDS011;2388;53.582;9.962;2023-10-09T00:01:49;3.97;;;1.53;;
4748;SDS011;2388;53.582;9.962;2023-10-09T00:04:16;5.47;;;1.60;;
4748;SDS011;2388;53.582;9.962;2023-10-09T00:06:42;3.37;;;1.63;;
4748;SDS011;2388;53.582;9.962;2023-10-09T00:09:09;2.87;;;1.33;;
4748;SDS011;2388;53.582;9.962;2023-10-09T00:11:47;2.87;;;2.00;;
4748;SDS011;2388;53.582;9.962;2023-10-09T00:14:13;4.27;;;1.97;;
4748;SDS011;2388;53.582;9.962;2023-10-09T00:16:40;1.73;;;1.63;;
4748;SDS011;2388;53.582;9.962;2023-10-09T00:19:13;5.23;;;1.50;;
4748;SDS011;2388;53.582;9.962;2023-10-09T00:21:41;1.73;;;1.37;;
4748;SDS011;2388;53.582;9.962;2023-10-09T00:24:08;3.43;;;1.30;;
4748;SDS011;2388;53.582;9.962;2023-10-09T00:26:52;3.30;;;1.40;;
4748;SDS011;2388;53.582;9.962;2023-10-09T00:29:40;3.10;;;1.30;;
4748;SDS011;2388;53.582;9.962;2023-10-09T00:32:13;4.70;;;1.63;;
4748;SDS011;2388;53.582;9.962;2023-10-09T00:34:51;1.47;;;1.37;;
4748;SDS011;2388;53.582;9.962;2023-10-09T00:37:17;1.50;;;1.40;;
4748;SDS011;2388;53.582;9.962;2023-10-09T00:39:50;4.97;;;1.70;;
4748;SDS011;2388;53.582;9.962;2023-10-09T00:42:22;2.53;;;1.87;;
4748;SDS011;2388;53.582;9.962;2023-10-09T00:45:03;6.33;;;1.20;;
4748;SDS011;2388;53.582;9.962;2023-10-09T00:47:30;2.30;;;1.70;;
4748;SDS011;2388;53.582;9.962;2023-10-09T00:49:59;3.03;;;1.60;;
4748;SDS011;2388;53.582;9.962;2023-10-09T00:52:45;3.10;;;1.43;;
4748;SDS011;2388;53.582;9.962;2023-10-09T00:55:27;1.37;;;1.17;;
4748;SDS011;2388;53.582;9.962;2023-10-09T00:58:07;3.03;;;1.50;;
4748;SDS011;2388;53.582;9.962;2023-10-09T01:00:41;2.80;;;1.33;;
4748;SDS011;2388;53.582;9.962;2023-10-09T01:03:17;4.23;;;0.97;;
4748;SDS011;2388;53.582;9.962;2023-10-09T01:08:22;3.10;;;1.30;;
4748;SDS011;2388;53.582;9.962;2023-10-09T01:10:58;3.40;;;1.40;;
4748;SDS011;2388;53.582;9.962;2023-10-09T01:13:39;2.93;;;1.20;;
4748;SDS011;2388;53.582;9.962;2023-10-09T01:16:11;5.90;;;1.87;;
4748;SDS011;2388;53.582;9.962;2023-10-09T01:18:46;2.10;;;1.40;;
4748;SDS011;2388;53.582;9.962;2023-10-09T01:21:19;4.70;;;1.40;;
4748;SDS011;2388;53.582;9.962;2023-10-09T01:23:52;2.50;;;1.50;;
4748;SDS011;2388;53.582;9.962;2023-10-09T01:26:24;2.37;;;1.30;;
4748;SDS011;2388;53.582;9.962;2023-10-09T01:28:50;1.43;;;0.80;;
4748;SDS011;2388;53.582;9.962;2023-10-09T01:31:16;1.87;;;1.50;;
4748;SDS011;2388;53.582;9.962;2023-10-09T01:33:41;5.80;;;1.53;;
4748;SDS011;2388;53.582;9.962;2023-10-09T01:36:07;2.00;;;1.40;;
4748;SDS011;2388;53.582;9.962;2023-10-09T01:38:34;3.73;;;1.00;;
4748;SDS011;2388;53.582;9.962;2023-10-09T01:41:06;4.43;;;1.70;;
4748;SDS011;2388;53.582;9.962;2023-10-09T01:43:40;3.47;;;1.23;;
4748;SDS011;2388;53.582;9.962;2023-10-09T01:46:09;5.57;;;1.20;;
4748;SDS011;2388;53.582;9.962;2023-10-09T01:48:36;4.63;;;1.70;;
4748;SDS011;2388;53.582;9.962;2023-10-09T01:51:04;2.43;;;1.53;;
4748;SDS011;2388;53.582;9.962;2023-10-09T01:53:30;2.30;;;1.40;;
4748;SDS011;2388;53.582;9.962;2023-10-09T01:55:57;5.60;;;1.73;;
4748;SDS011;2388;53.582;9.962;2023-10-09T01:58:34;1.40;;;1.30;;
4748;SDS011;2388;53.582;9.962;2023-10-09T02:01:00;1.43;;;1.33;;
4748;SDS011;2388;53.582;9.962;2023-10-09T02:03:27;1.70;;;0.97;;
4748;SDS011;2388;53.582;9.962;2023-10-09T02:05:54;1.83;;;0.93;;
4748;SDS011;2388;53.582;9.962;2023-10-09T02:08:28;1.13;;;1.03;;
4748;SDS011;2388;53.582;9.962;2023-10-09T02:10:54;2.83;;;1.40;;
4748;SDS011;2388;53.582;9.962;2023-10-09T02:13:21;2.73;;;1.27;;
4748;SDS011;2388;53.582;9.962;2023-10-09T02:15:55;2.90;;;1.20;;
4748;SDS011;2388;53.582;9.962;2023-10-09T02:18:23;2.90;;;1.50;;
4748;SDS011;2388;53.582;9.962;2023-10-09T02:23:30;3.23;;;2.40;;
4748;SDS011;2388;53.582;9.962;2023-10-09T02:26:06;3.77;;;1.13;;
4748;SDS011;2388;53.582;9.962;2023-10-09T02:28:33;2.40;;;1.53;;
4748;SDS011;2388;53.582;9.962;2023-10-09T02:31:00;3.03;;;1.40;;
4748;SDS011;2388;53.582;9.962;2023-10-09T02:33:34;1.53;;;1.10;;
4748;SDS011;2388;53.582;9.962;2023-10-09T02:36:01;1.50;;;1.20;;
4748;SDS011;2388;53.582;9.962;2023-10-09T02:38:30;2.90;;;1.40;;
4748;SDS011;2388;53.582;9.962;2023-10-09T02:40:59;1.30;;;1.17;;
4748;SDS011;2388;53.582;9.962;2023-10-09T02:43:27;2.30;;;1.27;;
4748;SDS011;2388;53.582;9.962;2023-10-09T02:45:58;3.30;;;1.93;;
4748;SDS011;2388;53.582;9.962;2023-10-09T02:48:31;2.60;;;1.53;;
4748;SDS011;2388;53.582;9.962;2023-10-09T02:51:01;3.77;;;1.40;;
4748;SDS011;2388;53.582;9.962;2023-10-09T02:53:27;1.60;;;1.07;;
4748;SDS011;2388;53.582;9.962;2023-10-09T02:56:00;2.73;;;1.23;;
4748;SDS011;2388;53.582;9.962;2023-10-09T02:58:38;2.00;;;1.23;;
4748;SDS011;2388;53.582;9.962;2023-10-09T03:01:09;3.70;;;1.80;;
4748;SDS011;2388;53.582;9.962;2023-10-09T03:03:36;1.20;;;1.10;;
4748;SDS011;2388;53.582;9.962;2023-10-09T03:06:03;2.33;;;1.43;;
4748;SDS011;2388;53.582;9.962;2023-10-09T03:08:35;3.57;;;1.13;;
4748;SDS011;2388;53.582;9.962;2023-10-09T03:11:02;1.97;;;1.57;;
4748;SDS011;2388;53.582;9.962;2023-10-09T03:13:27;1.50;;;1.30;;
4748;SDS011;2388;53.582;9.962;2023-10-09T03:15:54;4.63;;;1.30;;
4748;SDS011;2388;53.582;9.962;2023-10-09T03:18:19;2.20;;;1.67;;
4748;SDS011;2388;53.582;9.962;2023-10-09T03:20:45;2.50;;;1.83;;
4748;SDS011;2388;53.582;9.962;2023-10-09T03:23:11;3.80;;;1.80;;
4748;SDS011;2388;53.582;9.962;2023-10-09T03:25:39;6.23;;;1.20;;
4748;SDS011;2388;53.582;9.962;2023-10-09T03:28:05;5.33;;;1.10;;
4748;SDS011;2388;53.582;9.962;2023-10-09T03:30:31;4.07;;;1.40;;
4748;SDS011;2388;53.582;9.962;2023-10-09T03:32:57;4.33;;;1.40;;
4748;SDS011;2388;53.582;9.962;2023-10-09T03:35:25;2.10;;;1.47;;
4748;SDS011;2388;53.582;9.962;2023-10-09T03:37:58;1.87;;;1.23;;
4748;SDS011;2388;53.582;9.962;2023-10-09T03:40:37;1.70;;;1.40;;
4748;SDS011;2388;53.582;9.962;2023-10-09T03:43:07;2.03;;;1.30;;
4748;SDS011;2388;53.582;9.962;2023-10-09T03:45:35;4.33;;;1.77;;
4748;SDS011;2388;53.582;9.962;2023-10-09T03:48:03;4.10;;;1.97;;
4748;SDS011;2388;53.582;9.962;2023-10-09T03:50:37;2.83;;;1.60;;
4748;SDS011;2388;53.582;9.962;2023-10-09T03:53:03;5.10;;;3.10;;
4748;SDS011;2388;53.582;9.962;2023-10-09T03:55:32;2.13;;;1.40;;
4748;SDS011;2388;53.582;9.962;2023-10-09T03:57:58;3.37;;;1.33;;
4748;SDS011;2388;53.582;9.962;2023-10-09T04:00:24;2.73;;;1.27;;
4748;SDS011;2388;53.582;9.962;2023-10-09T04:02:53;2.30;;;1.10;;
4748;SDS011;2388;53.582;9.962;2023-10-09T04:05:23;2.27;;;1.70;;
4748;SDS011;2388;53.582;9.962;2023-10-09T04:07:49;1.50;;;1.40;;
4748;SDS011;2388;53.582;9.962;2023-10-09T04:10:16;1.97;;;1.60;;
4748;SDS011;2388;53.582;9.962;2023-10-09T04:13:00;1.77;;;1.17;;
4748;SDS011;2388;53.582;9.962;2023-10-09T04:15:28;1.60;;;1.00;;
4748;SDS011;2388;53.582;9.962;2023-10-09T04:17:56;2.27;;;1.37;;
4748;SDS011;2388;53.582;9.962;2023-10-09T04:20:21;2.20;;;1.50;;
4748;SDS011;2388;53.582;9.962;2023-10-09T04:22:47;1.87;;;1.10;;
4748;SDS011;2388;53.582;9.962;2023-10-09T04:25:19;3.07;;;1.40;;
4748;SDS011;2388;53.582;9.962;2023-10-09T04:27:55;1.77;;;1.37;;
4748;SDS011;2388;53.582;9.962;2023-10-09T04:30:37;1.97;;;1.50;;
4748;SDS011;2388;53.582;9.962;2023-10-09T04:33:11;2.03;;;1.40;;
4748;SDS011;2388;53.582;9.962;2023-10-09T04:36:05;5.53;;;1.87;;
4748;SDS011;2388;53.582;9.962;2023-10-09T04:38:43;1.97;;;1.23;;
4748;SDS011;2388;53.582;9.962;2023-10-09T04:41:20;3.63;;;1.10;;
4748;SDS011;2388;53.582;9.962;2023-10-09T04:44:19;2.17;;;1.77;;
4748;SDS011;2388;53.582;9.962;2023-10-09T04:46:47;1.63;;;1.33;;
4748;SDS011;2388;53.582;9.962;2023-10-09T04:49:33;5.77;;;1.60;;
4748;SDS011;2388;53.582;9.962;2023-10-09T04:52:26;4.50;;;1.70;;
4748;SDS011;2388;53.582;9.962;2023-10-09T04:54:58;1.73;;;1.40;;
4748;SDS011;2388;53.582;9.962;2023-10-09T04:57:45;8.33;;;2.67;;
4748;SDS011;2388;53.582;9.962;2023-10-09T05:00:25;1.70;;;1.07;;
4748;SDS011;2388;53.582;9.962;2023-10-09T05:02:51;3.20;;;1.60;;
4748;SDS011;2388;53.582;9.962;2023-10-09T05:05:23;4.67;;;1.73;;
4748;SDS011;2388;53.582;9.962;2023-10-09T05:08:13;3.63;;;1.93;;
4748;SDS011;2388;53.582;9.962;2023-10-09T05:10:46;2.10;;;1.40;;
4748;SDS011;2388;53.582;9.962;2023-10-09T05:18:44;2.97;;;2.13;;
4748;SDS011;2388;53.582;9.962;2023-10-09T05:21:20;2.23;;;1.50;;
4748;SDS011;2388;53.582;9.962;2023-10-09T05:23:56;3.27;;;2.40;;
4748;SDS011;2388;53.582;9.962;2023-10-09T05:26:44;1.70;;;1.30;;
4748;SDS011;2388;53.582;9.962;2023-10-09T05:29:20;2.00;;;1.80;;
4748;SDS011;2388;53.582;9.962;2023-10-09T05:31:59;2.17;;;1.50;;
4748;SDS011;2388;53.582;9.962;2023-10-09T05:34:40;4.73;;;1.77;;
4748;SDS011;2388;53.582;9.962;2023-10-09T05:37:25;3.37;;;1.60;;
4748;SDS011;2388;53.582;9.962;2023-10-09T05:42:44;2.73;;;1.30;;
4748;SDS011;2388;53.582;9.962;2023-10-09T05:45:12;3.83;;;1.70;;
4748;SDS011;2388;53.582;9.962;2023-10-09T05:48:07;2.90;;;1.43;;
4748;SDS011;2388;53.582;9.962;2023-10-09T05:50:52;3.60;;;1.60;;
4748;SDS011;2388;53.582;9.962;2023-10-09T05:53:36;3.00;;;1.57;;
4748;SDS011;2388;53.582;9.962;2023-10-09T05:56:11;5.50;;;1.77;;
4748;SDS011;2388;53.582;9.962;2023-10-09T05:58:55;3.47;;;1.43;;
4748;SDS011;2388;53.582;9.962;2023-10-09T06:01:59;4.27;;;1.93;;
4748;SDS011;2388;53.582;9.962;2023-10-09T06:04:27;3.20;;;1.67;;
4748;SDS011;2388;53.582;9.962;2023-10-09T06:07:19;6.33;;;1.57;;
4748;SDS011;2388;53.582;9.962;2023-10-09T06:09:49;4.03;;;1.80;;
4748;SDS011;2388;53.582;9.962;2023-10-09T06:12:14;5.13;;;1.53;;
4748;SDS011;2388;53.582;9.962;2023-10-09T06:14:58;7.40;;;2.30;;
4748;SDS011;2388;53.582;9.962;2023-10-09T06:17:44;3.23;;;1.67;;
4748;SDS011;2388;53.582;9.962;2023-10-09T06:20:15;3.17;;;1.70;;
4748;SDS011;2388;53.582;9.962;2023-10-09T06:22:59;2.63;;;1.70;;
4748;SDS011;2388;53.582;9.962;2023-10-09T06:25:29;6.50;;;2.63;;
4748;SDS011;2388;53.582;9.962;2023-10-09T06:27:58;6.30;;;2.07;;
4748;SDS011;2388;53.582;9.962;2023-10-09T06:30:23;4.87;;;2.60;;
4748;SDS011;2388;53.582;9.962;2023-10-09T06:32:50;4.83;;;1.97;;
4748;SDS011;2388;53.582;9.962;2023-10-09T06:35:23;3.00;;;1.80;;
4748;SDS011;2388;53.582;9.962;2023-10-09T06:37:55;3.57;;;1.90;;
4748;SDS011;2388;53.582;9.962;2023-10-09T06:40:34;3.17;;;2.17;;
4748;SDS011;2388;53.582;9.962;2023-10-09T06:43:01;2.30;;;2.10;;
4748;SDS011;2388;53.582;9.962;2023-10-09T06:45:35;4.93;;;2.60;;
4748;SDS011;2388;53.582;9.962;2023-10-09T06:48:10;6.80;;;2.37;;
4748;SDS011;2388;53.582;9.962;2023-10-09T06:50:55;3.37;;;2.17;;
4748;SDS011;2388;53.582;9.962;2023-10-09T06:53:23;5.27;;;2.40;;
4748;SDS011;2388;53.582;9.962;2023-10-09T06:56:11;6.00;;;2.40;;
4748;SDS011;2388;53.582;9.962;2023-10-09T06:58:48;4.40;;;2.90;;
4748;SDS011;2388;53.582;9.962;2023-10-09T07:01:14;4.13;;;2.73;;
4748;SDS011;2388;53.582;9.962;2023-10-09T07:03:44;2.73;;;2.50;;
4748;SDS011;2388;53.582;9.962;2023-10-09T07:06:25;4.13;;;2.13;;
4748;SDS011;2388;53.582;9.962;2023-10-09T07:08:59;6.43;;;2.43;;
4748;SDS011;2388;53.582;9.962;2023-10-09T07:11:38;3.53;;;2.47;;
4748;SDS011;2388;53.582;9.962;2023-10-09T07:14:08;3.67;;;2.40;;
4748;SDS011;2388;53.582;9.962;2023-10-09T07:16:57;4.13;;;2.70;;
4748;SDS011;2388;53.582;9.962;2023-10-09T07:19:41;2.50;;;2.30;;
4748;SDS011;2388;53.582;9.962;2023-10-09T07:22:11;3.30;;;3.07;;
4748;SDS011;2388;53.582;9.962;2023-10-09T07:27:39;11.17;;;7.73;;
4748;SDS011;2388;53.582;9.962;2023-10-09T07:30:17;12.43;;;7.73;;
4748;SDS011;2388;53.582;9.962;2023-10-09T07:32:56;10.50;;;7.53;;
4748;SDS011;2388;53.582;9.962;2023-10-09T07:35:49;7.60;;;5.07;;
4748;SDS011;2388;53.582;9.962;2023-10-09T07:38:18;6.10;;;4.50;;
4748;SDS011;2388;53.582;9.962;2023-10-09T07:40:53;3.37;;;1.90;;
4748;SDS011;2388;53.582;9.962;2023-10-09T07:43:40;2.07;;;1.97;;
4748;SDS011;2388;53.582;9.962;2023-10-09T07:46:09;1.70;;;1.60;;
4748;SDS011;2388;53.582;9.962;2023-10-09T07:48:55;2.77;;;1.57;;
4748;SDS011;2388;53.582;9.962;2023-10-09T07:51:22;1.90;;;1.70;;
4748;SDS011;2388;53.582;9.962;2023-10-09T07:53:51;2.70;;;1.60;;
4748;SDS011;2388;53.582;9.962;2023-10-09T07:56:32;1.53;;;1.43;;
4748;SDS011;2388;53.582;9.962;2023-10-09T07:59:03;1.83;;;1.53;;
4748;SDS011;2388;53.582;9.962;2023-10-09T08:01:35;3.20;;;1.40;;
4748;SDS011;2388;53.582;9.962;2023-10-09T08:04:24;2.00;;;1.03;;
4748;SDS011;2388;53.582;9.962;2023-10-09T08:07:09;1.57;;;1.47;;
4748;SDS011;2388;53.582;9.962;2023-10-09T08:09:44;1.30;;;1.13;;
4748;SDS011;2388;53.582;9.962;2023-10-09T08:12:13;1.27;;;1.03;;
4748;SDS011;2388;53.582;9.962;2023-10-09T08:15:00;1.70;;;1.40;;
4748;SDS011;2388;53.582;9.962;2023-10-09T08:17:51;2.80;;;1.73;;
4748;SDS011;2388;53.582;9.962;2023-10-09T08:20:35;1.57;;;1.47;;
4748;SDS011;2388;53.582;9.962;2023-10-09T08:23:20;2.33;;;1.47;;
4748;SDS011;2388;53.582;9.962;2023-10-09T08:25:59;1.63;;;1.50;;
4748;SDS011;2388;53.582;9.962;2023-10-09T08:28:37;1.30;;;1.20;;
4748;SDS011;2388;53.582;9.962;2023-10-09T08:31:07;1.43;;;1.10;;
4748;SDS011;2388;53.582;9.962;2023-10-09T08:33:44;4.20;;;3.20;;
4748;SDS011;2388;53.582;9.962;2023-10-09T08:36:21;9.40;;;7.50;;
4748;SDS011;2388;53.582;9.962;2023-10-09T08:38:47;11.00;;;7.47;;
4748;SDS011;2388;53.582;9.962;2023-10-09T08:41:13;10.60;;;7.40;;
4748;SDS011;2388;53.582;9.962;2023-10-09T08:43:48;9.83;;;5.90;;
4748;SDS011;2388;53.582;9.962;2023-10-09T08:46:19;6.93;;;6.23;;
4748;SDS011;2388;53.582;9.962;2023-10-09T08:48:46;4.23;;;3.83;;
4748;SDS011;2388;53.582;9.962;2023-10-09T08:51:13;3.07;;;2.87;;
4748;SDS011;2388;53.582;9.962;2023-10-09T08:53:39;2.30;;;2.10;;
4748;SDS011;2388;53.582;9.962;2023-10-09T08:56:08;2.13;;;2.03;;
4748;SDS011;2388;53.582;9.962;2023-10-09T08:58:35;8.03;;;1.80;;
4748;SDS011;2388;53.582;9.962;2023-10-09T09:01:05;1.47;;;1.37;;
4748;SDS011;2388;53.582;9.962;2023-10-09T09:03:37;1.70;;;1.60;;
4748;SDS011;2388;53.582;9.962;2023-10-09T09:06:05;3.40;;;1.73;;
4748;SDS011;2388;53.582;9.962;2023-10-09T09:08:32;2.30;;;2.10;;
4748;SDS011;2388;53.582;9.962;2023-10-09T09:13:37;2.63;;;1.47;;
4748;SDS011;2388;53.582;9.962;2023-10-09T09:16:09;3.03;;;1.57;;
4748;SDS011;2388;53.582;9.962;2023-10-09T09:19:01;1.80;;;1.70;;
4748;SDS011;2388;53.582;9.962;2023-10-09T09:21:35;1.67;;;1.57;;
4748;SDS011;2388;53.582;9.962;2023-10-09T09:24:09;2.57;;;2.37;;
4748;SDS011;2388;53.582;9.962;2023-10-09T09:26:48;3.30;;;3.00;;
4748;SDS011;2388;53.582;9.962;2023-10-09T09:32:02;4.47;;;4.07;;
4748;SDS011;2388;53.582;9.962;2023-10-09T09:37:20;4.00;;;3.60;;
4748;SDS011;2388;53.582;9.962;2023-10-09T09:40:15;7.03;;;3.53;;
4748;SDS011;2388;53.582;9.962;2023-10-09T09:42:56;5.47;;;3.40;;
4748;SDS011;2388;53.582;9.962;2023-10-09T09:45:29;3.33;;;3.17;;
4748;SDS011;2388;53.582;9.962;2023-10-09T09:48:02;5.20;;;4.33;;
4748;SDS011;2388;53.582;9.962;2023-10-09T09:50:34;4.90;;;4.23;;
4748;SDS011;2388;53.582;9.962;2023-10-09T09:53:03;3.70;;;3.40;;
4748;SDS011;2388;53.582;9.962;2023-10-09T09:55:33;3.63;;;3.33;;
4748;SDS011;2388;53.582;9.962;2023-10-09T09:58:06;3.67;;;2.93;;
4748;SDS011;2388;53.582;9.962;2023-10-09T10:00:43;3.40;;;3.20;;
4748;SDS011;2388;53.582;9.962;2023-10-09T10:03:14;3.37;;;3.00;;
4748;SDS011;2388;53.582;9.962;2023-10-09T10:05:45;2.70;;;2.60;;
4748;SDS011;2388;53.582;9.962;2023-10-09T10:08:17;4.43;;;4.13;;
4748;SDS011;2388;53.582;9.962;2023-10-09T10:10:45;3.63;;;3.33;;
4748;SDS011;2388;53.582;9.962;2023-10-09T10:13:17;2.60;;;2.50;;
4748;SDS011;2388;53.582;9.962;2023-10-09T10:16:09;2.97;;;2.70;;
4748;SDS011;2388;53.582;9.962;2023-10-09T10:18:54;2.93;;;2.73;;
4748;SDS011;2388;53.582;9.962;2023-10-09T10:21:46;2.03;;;1.93;;
4748;SDS011;2388;53.582;9.962;2023-10-09T10:32:53;2.00;;;1.90;;
4748;SDS011;2388;53.582;9.962;2023-10-09T10:35:21;3.73;;;3.53;;
4748;SDS011;2388;53.582;9.962;2023-10-09T10:40:50;2.83;;;2.30;;
4748;SDS011;2388;53.582;9.962;2023-10-09T10:43:26;4.13;;;2.50;;
4748;SDS011;2388;53.582;9.962;2023-10-09T10:46:05;2.37;;;2.27;;
4748;SDS011;2388;53.582;9.962;2023-10-09T10:48:40;2.33;;;2.23;;
4748;SDS011;2388;53.582;9.962;2023-10-09T10:51:12;2.07;;;1.97;;
4748;SDS011;2388;53.582;9.962;2023-10-09T10:53:50;16.60;;;14.10;;
4748;SDS011;2388;53.582;9.962;2023-10-09T10:56:23;11.70;;;10.37;;
4748;SDS011;2388;53.582;9.962;2023-10-09T10:59:00;2.90;;;2.70;;
4748;SDS011;2388;53.582;9.962;2023-10-09T11:01:34;3.60;;;3.13;;
4748;SDS011;2388;53.582;9.962;2023-10-09T11:04:23;3.03;;;2.50;;
4748;SDS011;2388;53.582;9.962;2023-10-09T11:07:02;2.50;;;2.40;;
4748;SDS011;2388;53.582;9.962;2023-10-09T11:12:29;4.17;;;2.40;;
4748;SDS011;2388;53.582;9.962;2023-10-09T11:15:29;2.67;;;2.57;;
4748;SDS011;2388;53.582;9.962;2023-10-09T11:18:17;2.80;;;2.67;;
4748;SDS011;2388;53.582;9.962;2023-10-09T11:20:50;3.43;;;3.13;;
4748;SDS011;2388;53.582;9.962;2023-10-09T11:23:29;3.73;;;3.40;;
4748;SDS011;2388;53.582;9.962;2023-10-09T11:26:04;7.00;;;3.33;;
4748;SDS011;2388;53.582;9.962;2023-10-09T11:32:03;3.97;;;3.67;;
4748;SDS011;2388;53.582;9.962;2023-10-09T11:34:30;3.10;;;2.90;;
4748;SDS011;2388;53.582;9.962;2023-10-09T11:36:57;3.37;;;3.17;;
4748;SDS011;2388;53.582;9.962;2023-10-09T11:39:25;3.87;;;3.57;;
4748;SDS011;2388;53.582;9.962;2023-10-09T11:42:09;5.07;;;4.50;;
4748;SDS011;2388;53.582;9.962;2023-10-09T11:44:40;5.53;;;5.10;;
4748;SDS011;2388;53.582;9.962;2023-10-09T11:47:09;5.50;;;4.40;;
4748;SDS011;2388;53.582;9.962;2023-10-09T11:49:51;4.30;;;3.93;;
4748;SDS011;2388;53.582;9.962;2023-10-09T11:52:30;4.77;;;4.37;;
4748;SDS011;2388;53.582;9.962;2023-10-09T11:55:04;4.63;;;4.20;;
4748;SDS011;2388;53.582;9.962;2023-10-09T11:57:40;4.47;;;4.20;;
4748;SDS011;2388;53.582;9.962;2023-10-09T12:00:06;3.97;;;3.77;;
4748;SDS011;2388;53.582;9.962;2023-10-09T12:02:50;5.20;;;4.70;;
4748;SDS011;2388;53.582;9.962;2023-10-09T12:05:15;5.23;;;4.83;;
4748;SDS011;2388;53.582;9.962;2023-10-09T12:07:44;6.47;;;5.93;;
4748;SDS011;2388;53.582;9.962;2023-10-09T12:10:19;5.37;;;4.90;;
4748;SDS011;2388;53.582;9.962;2023-10-09T12:12:51;5.27;;;4.50;;
4748;SDS011;2388;53.582;9.962;2023-10-09T12:15:18;7.80;;;3.80;;
4748;SDS011;2388;53.582;9.962;2023-10-09T12:17:44;6.13;;;5.17;;
4748;SDS011;2388;53.582;9.962;2023-10-09T12:20:12;5.33;;;4.93;;
4748;SDS011;2388;53.582;9.962;2023-10-09T12:22:59;4.57;;;4.20;;
4748;SDS011;2388;53.582;9.962;2023-10-09T12:25:26;4.10;;;3.90;;
4748;SDS011;2388;53.582;9.962;2023-10-09T12:27:56;4.87;;;4.57;;
4748;SDS011;2388;53.582;9.962;2023-10-09T12:30:26;6.03;;;5.30;;
4748;SDS011;2388;53.582;9.962;2023-10-09T12:32:53;4.57;;;4.20;;
4748;SDS011;2388;53.582;9.962;2023-10-09T12:35:20;5.67;;;5.27;;
4748;SDS011;2388;53.582;9.962;2023-10-09T12:37:45;5.57;;;5.10;;
4748;SDS011;2388;53.582;9.962;2023-10-09T12:40:12;5.00;;;4.60;;
4748;SDS011;2388;53.582;9.962;2023-10-09T12:42:37;5.80;;;5.27;;
4748;SDS011;2388;53.582;9.962;2023-10-09T12:45:03;5.93;;;5.43;;
4748;SDS011;2388;53.582;9.962;2023-10-09T12:47:33;6.37;;;5.77;;
4748;SDS011;2388;53.582;9.962;2023-10-09T12:50:02;6.83;;;6.10;;
4748;SDS011;2388;53.582;9.962;2023-10-09T12:52:35;6.83;;;6.20;;
4748;SDS011;2388;53.582;9.962;2023-10-09T12:55:02;5.80;;;5.33;;
4748;SDS011;2388;53.582;9.962;2023-10-09T12:57:33;5.97;;;5.47;;
4748;SDS011;2388;53.582;9.962;2023-10-09T12:59:58;8.37;;;6.17;;
4748;SDS011;2388;53.582;9.962;2023-10-09T13:02:24;5.80;;;5.30;;
4748;SDS011;2388;53.582;9.962;2023-10-09T13:04:58;7.13;;;6.17;;
4748;SDS011;2388;53.582;9.962;2023-10-09T13:07:25;5.70;;;5.30;;
4748;SDS011;2388;53.582;9.962;2023-10-09T13:09:50;5.83;;;5.30;;
4748;SDS011;2388;53.582;9.962;2023-10-09T13:12:35;6.30;;;5.70;;
4748;SDS011;2388;53.582;9.962;2023-10-09T13:15:06;7.57;;;6.87;;
4748;SDS011;2388;53.582;9.962;2023-10-09T13:17:35;10.53;;;6.83;;
4748;SDS011;2388;53.582;9.962;2023-10-09T13:20:01;9.40;;;6.23;;
4748;SDS011;2388;53.582;9.962;2023-10-09T13:22:29;8.50;;;6.50;;
4748;SDS011;2388;53.582;9.962;2023-10-09T13:24:55;6.80;;;6.00;;
4748;SDS011;2388;53.582;9.962;2023-10-09T13:27:28;10.20;;;7.20;;
4748;SDS011;2388;53.582;9.962;2023-10-09T13:29:59;7.80;;;7.20;;
4748;SDS011;2388;53.582;9.962;2023-10-09T13:32:30;8.00;;;7.20;;
4748;SDS011;2388;53.582;9.962;2023-10-09T13:35:00;7.93;;;7.20;;
4748;SDS011;2388;53.582;9.962;2023-10-09T13:37:30;8.20;;;6.30;;
4748;SDS011;2388;53.582;9.962;2023-10-09T13:40:02;8.30;;;7.40;;
4748;SDS011;2388;53.582;9.962;2023-10-09T13:42:34;8.83;;;6.70;;
4748;SDS011;2388;53.582;9.962;2023-10-09T13:45:00;9.07;;;6.63;;
4748;SDS011;2388;53.582;9.962;2023-10-09T13:47:29;7.30;;;6.57;;
4748;SDS011;2388;53.582;9.962;2023-10-09T13:49:57;6.70;;;6.10;;
4748;SDS011;2388;53.582;9.962;2023-10-09T13:52:24;6.57;;;6.07;;
4748;SDS011;2388;53.582;9.962;2023-10-09T13:54:49;7.00;;;6.30;;
4748;SDS011;2388;53.582;9.962;2023-10-09T13:57:15;7.50;;;5.97;;
4748;SDS011;2388;53.582;9.962;2023-10-09T13:59:41;8.13;;;5.57;;
4748;SDS011;2388;53.582;9.962;2023-10-09T14:02:14;5.30;;;4.90;;
4748;SDS011;2388;53.582;9.962;2023-10-09T14:04:42;5.30;;;4.00;;
4748;SDS011;2388;53.582;9.962;2023-10-09T14:07:08;5.00;;;4.70;;
4748;SDS011;2388;53.582;9.962;2023-10-09T14:09:34;4.07;;;3.87;;
4748;SDS011;2388;53.582;9.962;2023-10-09T14:12:04;4.00;;;3.80;;
4748;SDS011;2388;53.582;9.962;2023-10-09T14:14:39;5.17;;;4.67;;
4748;SDS011;2388;53.582;9.962;2023-10-09T14:17:11;4.90;;;4.50;;
4748;SDS011;2388;53.582;9.962;2023-10-09T14:19:44;4.90;;;4.50;;
4748;SDS011;2388;53.582;9.962;2023-10-09T14:22:22;4.47;;;4.17;;
4748;SDS011;2388;53.582;9.962;2023-10-09T14:24:52;6.33;;;5.53;;
4748;SDS011;2388;53.582;9.962;2023-10-09T14:27:22;7.00;;;4.50;;
4748;SDS011;2388;53.582;9.962;2023-10-09T14:29:52;5.40;;;4.83;;
4748;SDS011;2388;53.582;9.962;2023-10-09T14:32:24;5.43;;;5.03;;
4748;SDS011;2388;53.582;9.962;2023-10-09T14:34:53;6.20;;;5.80;;
4748;SDS011;2388;53.582;9.962;2023-10-09T14:37:20;6.17;;;5.67;;
4748;SDS011;2388;53.582;9.962;2023-10-09T14:39:46;7.40;;;5.60;;
4748;SDS011;2388;53.582;9.962;2023-10-09T14:42:16;5.77;;;5.37;;
4748;SDS011;2388;53.582;9.962;2023-10-09T14:44:42;5.50;;;5.10;;
4748;SDS011;2388;53.582;9.962;2023-10-09T14:47:10;4.83;;;4.43;;
4748;SDS011;2388;53.582;9.962;2023-10-09T14:49:36;5.93;;;5.43;;
4748;SDS011;2388;53.582;9.962;2023-10-09T14:52:03;5.80;;;5.30;;
4748;SDS011;2388;53.582;9.962;2023-10-09T14:54:33;5.97;;;5.47;;
4748;SDS011;2388;53.582;9.962;2023-10-09T14:56:59;6.10;;;5.30;;
4748;SDS011;2388;53.582;9.962;2023-10-09T14:59:24;6.37;;;5.60;;
4748;SDS011;2388;53.582;9.962;2023-10-09T15:01:50;6.70;;;5.70;;
4748;SDS011;2388;53.582;9.962;2023-10-09T15:04:18;7.30;;;6.60;;
4748;SDS011;2388;53.582;9.962;2023-10-09T15:06:44;9.20;;;5.60;;
4748;SDS011;2388;53.582;9.962;2023-10-09T15:09:13;6.20;;;5.70;;
4748;SDS011;2388;53.582;9.962;2023-10-09T15:11:47;7.03;;;6.40;;
4748;SDS011;2388;53.582;9.962;2023-10-09T15:14:13;6.27;;;5.67;;
4748;SDS011;2388;53.582;9.962;2023-10-09T15:16:39;8.00;;;7.20;;
4748;SDS011;2388;53.582;9.962;2023-10-09T15:19:07;7.30;;;6.60;;
4748;SDS011;2388;53.582;9.962;2023-10-09T15:21:34;7.30;;;6.70;;
4748;SDS011;2388;53.582;9.962;2023-10-09T15:24:09;8.20;;;6.73;;
4748;SDS011;2388;53.582;9.962;2023-10-09T15:26:44;6.43;;;5.83;;
4748;SDS011;2388;53.582;9.962;2023-10-09T15:29:17;7.10;;;6.50;;
4748;SDS011;2388;53.582;9.962;2023-10-09T15:31:44;6.60;;;5.90;;
4748;SDS011;2388;53.582;9.962;2023-10-09T15:34:11;6.90;;;6.30;;
4748;SDS011;2388;53.582;9.962;2023-10-09T15:36:37;8.47;;;7.40;;
4748;SDS011;2388;53.582;9.962;2023-10-09T15:39:04;8.03;;;7.20;;
4748;SDS011;2388;53.582;9.962;2023-10-09T15:41:32;8.83;;;7.23;;
4748;SDS011;2388;53.582;9.962;2023-10-09T15:43:59;7.83;;;7.13;;
4748;SDS011;2388;53.582;9.962;2023-10-09T15:46:26;6.80;;;6.23;;
4748;SDS011;2388;53.582;9.962;2023-10-09T15:48:52;7.20;;;6.50;;
4748;SDS011;2388;53.582;9.962;2023-10-09T15:51:18;6.90;;;6.20;;
4748;SDS011;2388;53.582;9.962;2023-10-09T15:53:44;8.33;;;7.30;;
4748;SDS011;2388;53.582;9.962;2023-10-09T15:56:11;7.97;;;7.17;;
4748;SDS011;2388;53.582;9.962;2023-10-09T15:58:41;7.20;;;5.87;;
4748;SDS011;2388;53.582;9.962;2023-10-09T16:01:10;7.30;;;6.60;;
4748;SDS011;2388;53.582;9.962;2023-10-09T16:03:40;6.47;;;5.90;;
4748;SDS011;2388;53.582;9.962;2023-10-09T16:06:07;7.27;;;6.57;;
4748;SDS011;2388;53.582;9.962;2023-10-09T16:08:37;7.30;;;5.50;;
4748;SDS011;2388;53.582;9.962;2023-10-09T16:11:06;6.50;;;5.90;;
4748;SDS011;2388;53.582;9.962;2023-10-09T16:13:32;6.60;;;5.90;;
4748;SDS011;2388;53.582;9.962;2023-10-09T16:15:59;7.37;;;6.03;;
4748;SDS011;2388;53.582;9.962;2023-10-09T16:18:26;7.70;;;5.40;;
4748;SDS011;2388;53.582;9.962;2023-10-09T16:20:55;5.13;;;3.87;;
4748;SDS011;2388;53.582;9.962;2023-10-09T16:23:20;3.97;;;3.40;;
4748;SDS011;2388;53.582;9.962;2023-10-09T16:25:46;3.47;;;3.10;;
4748;SDS011;2388;53.582;9.962;2023-10-09T16:28:12;8.10;;;4.80;;
4748;SDS011;2388;53.582;9.962;2023-10-09T16:30:40;3.77;;;3.47;;